createdAt,value
2023-01-06T00:01:48.106Z,8.60
2023-01-06T00:04:14.832Z,8.60
2023-01-06T00:06:45.088Z,8.60
2023-01-06T00:15:01.644Z,8.50
2023-01-06T00:20:52.328Z,8.50
2023-01-06T00:23:18.975Z,8.50
2023-01-06T00:25:49.111Z,8.50
2023-01-06T00:28:15.775Z,8.60
2023-01-06T00:30:48.417Z,8.60
2023-01-06T00:33:15.279Z,8.60
2023-01-06T00:35:42.082Z,8.60
2023-01-06T00:38:08.761Z,8.60
2023-01-06T00:40:36.059Z,8.60
2023-01-06T00:43:02.881Z,8.60
2023-01-06T00:45:29.530Z,8.60
2023-01-06T00:47:56.408Z,8.60
2023-01-06T00:50:23.321Z,8.60
2023-01-06T00:52:50.035Z,8.50
2023-01-06T00:55:16.858Z,8.50
2023-01-06T00:57:43.476Z,8.50
2023-01-06T01:00:10.236Z,8.50
2023-01-06T01:02:48.492Z,8.60
2023-01-06T01:05:15.339Z,8.50
2023-01-06T01:07:41.974Z,8.60
2023-01-06T01:10:08.901Z,8.60
2023-01-06T01:12:36.705Z,8.60
2023-01-06T01:15:03.478Z,8.60
2023-01-06T01:17:31.949Z,8.60
2023-01-06T01:20:00.809Z,8.50
2023-01-06T01:22:28.056Z,8.50
2023-01-06T01:24:54.795Z,8.50
2023-01-06T01:27:21.494Z,8.50
2023-01-06T01:29:48.065Z,8.40
2023-01-06T01:32:14.735Z,8.40
2023-01-06T01:34:41.511Z,8.40
2023-01-06T01:37:08.181Z,8.50
2023-01-06T01:39:34.817Z,8.40
2023-01-06T01:42:01.503Z,8.50
2023-01-06T01:44:47.137Z,8.50
2023-01-06T01:47:15.818Z,8.50
2023-01-06T01:49:44.075Z,8.50
2023-01-06T01:52:11.800Z,8.50
2023-01-06T01:54:39.176Z,8.40
2023-01-06T01:57:29.093Z,8.50
2023-01-06T01:59:56.042Z,8.50
2023-01-06T02:02:23.323Z,8.50
2023-01-06T02:04:52.629Z,8.50
2023-01-06T02:07:19.606Z,8.40
2023-01-06T02:10:01.436Z,8.40
2023-01-06T02:12:28.446Z,8.30
2023-01-06T02:14:55.196Z,8.20
2023-01-06T02:17:21.771Z,8.10
2023-01-06T02:20:07.135Z,8.10
2023-01-06T02:22:44.053Z,7.90
2023-01-06T02:25:29.173Z,7.90
2023-01-06T02:28:02.129Z,7.70
2023-01-06T02:30:47.686Z,7.70
2023-01-06T02:33:17.315Z,7.60
2023-01-06T02:35:43.925Z,7.60
2023-01-06T02:38:10.766Z,7.60
2023-01-06T02:40:44.343Z,7.60
2023-01-06T02:43:35.683Z,7.50
2023-01-06T02:46:31.683Z,7.40
2023-01-06T02:49:04.491Z,7.40
2023-01-06T02:51:37.592Z,7.30
2023-01-06T02:54:04.248Z,7.30
2023-01-06T02:56:32.413Z,7.30
2023-01-06T02:59:02.126Z,7.20
2023-01-06T03:01:30.945Z,7.10
2023-01-06T03:03:59.276Z,7.10
2023-01-06T03:06:27.663Z,7.00
2023-01-06T03:08:55.366Z,6.80
2023-01-06T03:11:22.528Z,6.60
2023-01-06T03:14:02.184Z,6.60
2023-01-06T03:16:28.869Z,6.60
2023-01-06T03:18:55.961Z,6.60
2023-01-06T03:21:25.458Z,6.60
2023-01-06T03:23:52.165Z,6.70
2023-01-06T03:26:18.838Z,6.70
2023-01-06T03:28:45.538Z,6.70
2023-01-06T03:31:15.514Z,6.60
2023-01-06T03:34:02.443Z,6.60
2023-01-06T03:36:29.260Z,6.60
2023-01-06T03:39:01.522Z,6.60
2023-01-06T03:42:02.220Z,6.60
2023-01-06T03:44:40.462Z,6.60
2023-01-06T03:47:15.921Z,6.60
2023-01-06T03:49:53.795Z,6.50
2023-01-06T03:52:31.872Z,6.50
2023-01-06T03:55:19.069Z,6.50
2023-01-06T03:57:50.584Z,6.50
2023-01-06T04:00:19.730Z,6.30
2023-01-06T04:02:47.010Z,6.30
2023-01-06T04:05:15.317Z,6.30
2023-01-06T04:07:44.402Z,6.20
2023-01-06T04:10:12.005Z,6.10
2023-01-06T04:12:38.850Z,5.90
2023-01-06T04:15:10.598Z,5.70
2023-01-06T04:17:37.982Z,5.60
2023-01-06T04:20:05.375Z,5.60
2023-01-06T04:22:32.099Z,5.60
2023-01-06T04:24:59.804Z,5.60
2023-01-06T04:27:26.411Z,5.60
2023-01-06T04:29:53.092Z,5.50
2023-01-06T04:32:19.675Z,5.60
2023-01-06T04:34:46.420Z,5.60
2023-01-06T04:37:13.016Z,5.60
2023-01-06T04:39:39.679Z,5.60
2023-01-06T04:42:06.349Z,5.60
2023-01-06T04:44:33.079Z,5.60
2023-01-06T04:46:59.682Z,5.50
2023-01-06T04:49:26.311Z,5.50
2023-01-06T04:51:52.997Z,5.50
2023-01-06T04:54:19.661Z,5.40
2023-01-06T04:56:46.297Z,5.40
2023-01-06T04:59:12.895Z,5.20
2023-01-06T05:01:39.663Z,5.10
2023-01-06T05:04:07.397Z,5.10
2023-01-06T05:06:34.321Z,5.00
2023-01-06T05:09:00.954Z,5.00
2023-01-06T05:11:27.921Z,5.00
2023-01-06T05:13:54.645Z,4.90
2023-01-06T05:16:21.294Z,5.00
2023-01-06T05:18:48.197Z,5.00
2023-01-06T05:21:15.012Z,5.00
2023-01-06T05:23:41.659Z,5.00
2023-01-06T05:26:09.618Z,5.00
2023-01-06T05:28:36.250Z,5.00
2023-01-06T05:31:04.081Z,5.00
2023-01-06T05:33:31.473Z,5.00
2023-01-06T05:36:02.395Z,5.00
2023-01-06T05:38:29.127Z,5.00
2023-01-06T05:40:56.857Z,5.00
2023-01-06T05:43:24.257Z,5.00
2023-01-06T05:45:51.001Z,4.90
2023-01-06T05:48:17.654Z,4.90
2023-01-06T05:50:44.443Z,4.80
2023-01-06T05:53:11.105Z,4.80
2023-01-06T05:55:37.695Z,4.80
2023-01-06T05:58:04.387Z,4.80
2023-01-06T06:00:31.050Z,4.70
2023-01-06T06:02:57.706Z,4.60
2023-01-06T06:05:24.362Z,4.60
2023-01-06T06:07:57.211Z,4.60
2023-01-06T06:10:24.012Z,4.60
2023-01-06T06:12:51.960Z,4.50
2023-01-06T06:15:19.220Z,4.40
2023-01-06T06:17:45.922Z,4.40
2023-01-06T06:20:12.511Z,4.40
2023-01-06T06:22:39.159Z,4.40
2023-01-06T06:25:06.011Z,4.40
2023-01-06T06:27:32.586Z,4.30
2023-01-06T06:29:59.204Z,4.30
2023-01-06T06:32:25.938Z,4.30
2023-01-06T06:34:52.574Z,4.30
2023-01-06T06:37:19.299Z,4.30
2023-01-06T06:39:45.894Z,4.30
2023-01-06T06:42:12.586Z,4.20
2023-01-06T06:44:39.262Z,4.30
2023-01-06T06:47:05.918Z,4.20
2023-01-06T06:49:32.659Z,4.20
2023-01-06T06:51:59.370Z,4.10
2023-01-06T06:54:26.102Z,4.10
2023-01-06T06:56:57.805Z,4.00
2023-01-06T06:59:24.439Z,4.00
2023-01-06T07:01:51.141Z,4.00
2023-01-06T07:04:17.821Z,4.00
2023-01-06T07:06:44.449Z,4.00
2023-01-06T07:09:11.047Z,4.00
2023-01-06T07:11:37.801Z,4.00
2023-01-06T07:14:04.422Z,4.10
2023-01-06T07:16:31.752Z,4.10
2023-01-06T07:18:58.362Z,4.00
2023-01-06T07:21:25.080Z,4.10
2023-01-06T07:23:51.770Z,4.10
2023-01-06T07:26:18.428Z,4.10
2023-01-06T07:28:45.287Z,4.00
2023-01-06T07:31:12.050Z,4.10
2023-01-06T07:33:38.633Z,4.20
2023-01-06T07:36:06.510Z,4.20
2023-01-06T07:38:33.073Z,4.20
2023-01-06T07:41:00.717Z,4.30
2023-01-06T07:43:27.335Z,4.30
2023-01-06T07:45:54.187Z,4.30
2023-01-06T07:48:20.869Z,4.20
2023-01-06T07:50:47.682Z,4.20
2023-01-06T07:53:14.315Z,4.20
2023-01-06T07:55:41.012Z,4.30
2023-01-06T07:58:08.329Z,4.30
2023-01-06T08:00:35.617Z,4.40
2023-01-06T08:03:06.131Z,4.40
2023-01-06T08:05:33.454Z,4.50
2023-01-06T08:08:00.039Z,4.60
2023-01-06T08:10:26.656Z,4.60
2023-01-06T08:12:53.279Z,4.70
2023-01-06T08:15:19.940Z,4.60
2023-01-06T08:17:46.625Z,4.70
2023-01-06T08:20:13.229Z,4.70
2023-01-06T08:22:39.856Z,4.80
2023-01-06T08:25:23.909Z,4.80
2023-01-06T08:27:50.516Z,4.80
2023-01-06T08:30:21.443Z,4.90
2023-01-06T08:32:48.981Z,5.00
2023-01-06T08:35:15.976Z,5.10
2023-01-06T08:37:42.700Z,5.10
2023-01-06T08:40:09.800Z,5.30
2023-01-06T08:42:36.463Z,5.40
2023-01-06T08:45:03.454Z,5.60
2023-01-06T08:47:30.136Z,5.70
2023-01-06T08:49:56.788Z,5.80
2023-01-06T08:52:23.427Z,5.90
2023-01-06T08:54:50.021Z,6.00
2023-01-06T08:57:16.777Z,6.00
2023-01-06T08:59:43.590Z,6.10
2023-01-06T09:02:10.913Z,6.10
2023-01-06T09:04:53.030Z,6.20
2023-01-06T09:07:19.711Z,6.20
2023-01-06T09:09:46.367Z,6.30
2023-01-06T09:12:13.076Z,6.30
2023-01-06T09:14:39.756Z,6.30
2023-01-06T09:17:06.343Z,6.40
2023-01-06T09:19:32.982Z,6.40
2023-01-06T09:22:00.946Z,6.50
2023-01-06T09:24:27.815Z,6.50
2023-01-06T09:26:54.450Z,6.50
2023-01-06T09:29:21.392Z,6.60
2023-01-06T09:31:49.128Z,6.60
2023-01-06T09:34:15.763Z,6.60
2023-01-06T09:36:42.418Z,6.70
2023-01-06T09:39:09.053Z,6.70
2023-01-06T09:41:58.599Z,6.80
2023-01-06T09:44:28.282Z,6.80
2023-01-06T09:46:55.905Z,6.90
2023-01-06T09:49:28.730Z,7.00
2023-01-06T09:51:57.829Z,7.00
2023-01-06T09:54:30.602Z,7.10
2023-01-06T09:57:02.141Z,7.10
2023-01-06T09:59:32.827Z,7.10
2023-01-06T10:02:00.665Z,7.20
2023-01-06T10:04:29.066Z,7.20
2023-01-06T10:07:01.704Z,7.30
2023-01-06T10:09:52.880Z,7.30
2023-01-06T10:12:34.102Z,7.40
2023-01-06T10:15:16.004Z,7.40
2023-01-06T10:17:42.627Z,7.50
2023-01-06T10:20:18.420Z,7.50
2023-01-06T10:23:04.298Z,7.60
2023-01-06T10:25:35.545Z,7.60
2023-01-06T10:28:17.728Z,7.70
2023-01-06T10:30:48.364Z,7.70
2023-01-06T10:33:22.166Z,7.80
2023-01-06T10:35:49.235Z,7.80
2023-01-06T10:38:16.257Z,7.90
2023-01-06T10:40:43.072Z,7.90
2023-01-06T10:43:13.573Z,8.00
2023-01-06T10:45:42.222Z,8.00
2023-01-06T10:48:28.800Z,8.00
2023-01-06T10:50:57.206Z,8.00
2023-01-06T10:53:27.199Z,8.00
2023-01-06T10:55:54.394Z,8.00
2023-01-06T10:58:34.250Z,8.00
2023-01-06T11:01:09.186Z,8.00
2023-01-06T11:03:36.892Z,8.00
2023-01-06T11:06:08.280Z,8.00
2023-01-06T11:08:35.903Z,8.00
2023-01-06T11:11:02.785Z,8.00
2023-01-06T11:13:33.603Z,8.10
2023-01-06T11:16:05.982Z,8.10
2023-01-06T11:18:33.848Z,8.10
2023-01-06T11:21:01.900Z,8.10
2023-01-06T11:23:29.727Z,8.10
2023-01-06T11:26:00.656Z,8.20
2023-01-06T11:28:27.280Z,8.20
2023-01-06T11:31:00.122Z,8.20
2023-01-06T11:33:27.774Z,8.20
2023-01-06T11:35:55.026Z,8.20
2023-01-06T11:38:22.204Z,8.20
2023-01-06T11:40:49.727Z,8.20
2023-01-06T11:43:18.017Z,8.30
2023-01-06T11:45:47.113Z,8.30
2023-01-06T11:48:22.220Z,8.40
2023-01-06T11:50:58.937Z,8.40
2023-01-06T11:53:26.565Z,8.40
2023-01-06T11:56:04.258Z,8.40
2023-01-06T11:58:43.072Z,8.40
2023-01-06T12:01:18.962Z,8.50
2023-01-06T12:03:46.165Z,8.60
2023-01-06T12:06:22.007Z,8.60
2023-01-06T12:08:48.604Z,8.70
2023-01-06T12:11:33.641Z,8.80
2023-01-06T12:14:29.256Z,8.80
2023-01-06T12:16:52.625Z,8.90
2023-01-06T12:19:27.226Z,9.00
2023-01-06T12:21:55.232Z,9.00
2023-01-06T12:24:23.013Z,9.00
2023-01-06T12:26:50.260Z,9.00
2023-01-06T12:29:20.593Z,9.00
2023-01-06T12:32:04.944Z,9.00
2023-01-06T12:34:36.561Z,9.10
2023-01-06T12:37:03.171Z,9.10
2023-01-06T12:39:35.807Z,9.10
2023-01-06T12:42:23.755Z,9.10
2023-01-06T12:44:57.172Z,9.10
2023-01-06T12:47:31.253Z,9.10
2023-01-06T12:50:30.581Z,9.10
2023-01-06T12:53:20.903Z,9.10
2023-01-06T12:55:59.984Z,9.10
2023-01-06T12:58:27.073Z,9.10
2023-01-06T13:00:58.606Z,9.10
2023-01-06T13:03:31.336Z,9.10
2023-01-06T13:06:23.299Z,9.10
2023-01-06T13:08:56.130Z,9.20
2023-01-06T13:11:41.631Z,9.20
2023-01-06T13:14:20.518Z,9.30
2023-01-06T13:17:06.197Z,9.30
2023-01-06T13:19:32.854Z,9.30
2023-01-06T13:22:01.386Z,9.20
2023-01-06T13:24:53.254Z,9.20
2023-01-06T13:27:22.945Z,9.20
2023-01-06T13:30:01.274Z,9.10
2023-01-06T13:32:46.889Z,9.20
2023-01-06T13:35:23.600Z,9.20
2023-01-06T13:37:50.196Z,9.20
2023-01-06T13:40:18.741Z,9.20
2023-01-06T13:42:50.302Z,9.20
2023-01-06T13:45:32.798Z,9.20
2023-01-06T13:48:00.819Z,9.30
2023-01-06T13:50:30.670Z,9.30
2023-01-06T13:52:57.352Z,9.30
2023-01-06T13:55:26.239Z,9.20
2023-01-06T13:57:52.908Z,9.10
2023-01-06T14:00:21.140Z,9.10
2023-01-06T14:02:50.863Z,9.10
2023-01-06T14:05:17.496Z,9.10
2023-01-06T14:07:49.249Z,9.10
2023-01-06T14:10:34.746Z,9.10
2023-01-06T14:13:02.379Z,9.20
2023-01-06T14:15:35.395Z,9.20
2023-01-06T14:18:02.866Z,9.20
2023-01-06T14:20:36.924Z,9.20
2023-01-06T14:23:05.416Z,9.10
2023-01-06T14:25:42.693Z,9.10
2023-01-06T14:28:21.779Z,9.20
2023-01-06T14:30:50.016Z,9.30
2023-01-06T14:33:24.683Z,9.40
2023-01-06T14:35:53.736Z,9.50
2023-01-06T14:38:24.213Z,9.60
2023-01-06T14:40:54.340Z,9.60
2023-01-06T14:43:23.989Z,9.50
2023-01-06T14:45:51.063Z,9.40
2023-01-06T14:48:20.306Z,9.50
2023-01-06T14:50:49.939Z,9.50
2023-01-06T14:53:33.666Z,9.70
2023-01-06T14:56:00.518Z,9.70
2023-01-06T14:58:28.091Z,9.70
2023-01-06T15:00:55.230Z,9.60
2023-01-06T15:03:24.550Z,9.60
2023-01-06T15:05:51.365Z,9.50
2023-01-06T15:08:18.952Z,9.40
2023-01-06T15:10:46.704Z,9.40
2023-01-06T15:13:20.308Z,9.30
2023-01-06T15:16:05.911Z,9.20
2023-01-06T15:18:33.804Z,9.10
2023-01-06T15:21:00.787Z,8.90
2023-01-06T15:23:27.560Z,8.70
2023-01-06T15:25:54.937Z,8.50
2023-01-06T15:28:28.956Z,8.30
2023-01-06T15:30:56.233Z,8.10
2023-01-06T15:33:24.152Z,8.00
2023-01-06T15:35:51.738Z,7.90
2023-01-06T15:38:26.089Z,7.90
2023-01-06T15:41:10.437Z,7.80
2023-01-06T15:43:44.445Z,7.70
2023-01-06T15:46:14.172Z,7.70
2023-01-06T15:48:53.324Z,7.60
2023-01-06T15:51:20.995Z,7.60
2023-01-06T15:53:48.421Z,7.50
2023-01-06T15:56:18.601Z,7.50
2023-01-06T15:58:48.348Z,7.40
2023-01-06T16:01:16.851Z,7.30
2023-01-06T16:03:46.590Z,7.20
2023-01-06T16:06:14.301Z,7.20
2023-01-06T16:08:41.977Z,7.10
2023-01-06T16:11:47.531Z,7.10
2023-01-06T16:14:30.897Z,7.00
2023-01-06T16:17:03.623Z,6.90
2023-01-06T16:19:30.602Z,6.80
2023-01-06T16:22:04.342Z,6.80
2023-01-06T16:24:31.427Z,6.70
2023-01-06T16:26:58.029Z,6.60
2023-01-06T16:29:34.941Z,6.60
2023-01-06T16:32:20.252Z,6.50
2023-01-06T16:34:53.411Z,6.50
2023-01-06T16:37:20.083Z,6.40
2023-01-06T16:39:47.124Z,6.40
2023-01-06T16:42:38.101Z,6.30
2023-01-06T16:45:12.494Z,6.30
2023-01-06T16:47:40.022Z,6.20
2023-01-06T16:50:17.843Z,6.20
2023-01-06T16:52:45.606Z,6.10
2023-01-06T16:55:13.569Z,6.10
2023-01-06T16:57:40.713Z,6.10
2023-01-06T17:00:17.927Z,6.10
2023-01-06T17:02:45.197Z,6.00
2023-01-06T17:05:25.753Z,5.80
2023-01-06T17:07:53.512Z,5.80
2023-01-06T17:10:21.166Z,5.80
2023-01-06T17:13:10.166Z,5.80
2023-01-06T17:15:37.221Z,5.80
2023-01-06T17:18:05.115Z,5.80
2023-01-06T17:20:31.947Z,5.80
2023-01-06T17:22:58.644Z,5.90
2023-01-06T17:25:26.425Z,5.90
2023-01-06T17:27:53.191Z,6.00
2023-01-06T17:30:20.065Z,6.00
2023-01-06T17:32:47.608Z,6.00
2023-01-06T17:35:20.515Z,6.10
2023-01-06T17:37:47.206Z,6.00
2023-01-06T17:40:18.496Z,6.00
2023-01-06T17:42:47.118Z,6.20
2023-01-06T17:45:24.613Z,6.40
2023-01-06T17:47:51.853Z,6.40
2023-01-06T17:50:24.159Z,6.40
2023-01-06T17:53:10.777Z,6.40
2023-01-06T17:55:45.337Z,6.40
2023-01-06T17:58:14.541Z,6.30
2023-01-06T18:00:41.547Z,6.20
2023-01-06T18:03:15.398Z,6.20
2023-01-06T18:05:43.963Z,6.20
2023-01-06T18:08:13.483Z,6.30
2023-01-06T18:10:45.369Z,6.30
2023-01-06T18:13:32.260Z,6.30
2023-01-06T18:16:00.153Z,6.30
2023-01-06T18:18:35.988Z,6.40
2023-01-06T18:21:05.499Z,6.40
2023-01-06T18:23:33.165Z,6.40
2023-01-06T18:26:21.026Z,6.50
2023-01-06T18:28:47.609Z,6.50
2023-01-06T18:31:16.051Z,6.50
2023-01-06T18:33:42.747Z,6.50
2023-01-06T18:36:09.388Z,6.50
2023-01-06T18:38:36.030Z,6.50
2023-01-06T18:41:02.661Z,6.60
2023-01-06T18:43:30.141Z,6.60
2023-01-06T18:46:00.300Z,6.60
2023-01-06T18:48:32.999Z,6.60
2023-01-06T18:51:00.688Z,6.60
2023-01-06T18:53:31.066Z,6.60
2023-01-06T18:55:59.429Z,6.70
2023-01-06T18:58:56.959Z,6.70
2023-01-06T19:01:25.091Z,6.70
2023-01-06T19:04:10.631Z,6.70
2023-01-06T19:06:38.167Z,6.70
2023-01-06T19:09:15.747Z,6.70
2023-01-06T19:11:42.372Z,6.60
2023-01-06T19:14:14.297Z,6.70
2023-01-06T19:16:43.631Z,6.70
2023-01-06T19:19:10.878Z,6.70
2023-01-06T19:21:38.156Z,6.70
2023-01-06T19:24:23.675Z,6.70
2023-01-06T19:26:50.340Z,6.70
2023-01-06T19:29:25.003Z,6.70
2023-01-06T19:31:55.939Z,6.70
2023-01-06T19:34:23.234Z,6.70
2023-01-06T19:36:53.569Z,6.70
2023-01-06T19:39:48.724Z,6.80
2023-01-06T19:42:15.309Z,6.80
2023-01-06T19:44:42.193Z,6.80
2023-01-06T19:47:11.825Z,6.80
2023-01-06T19:49:39.960Z,6.80
2023-01-06T19:52:25.440Z,6.80
2023-01-06T19:54:52.154Z,6.80
2023-01-06T19:57:31.940Z,6.80
2023-01-06T19:59:59.862Z,6.80
2023-01-06T20:02:30.768Z,6.80
2023-01-06T20:04:57.532Z,6.90
2023-01-06T20:07:26.281Z,6.90
2023-01-06T20:09:54.161Z,6.90
2023-01-06T20:12:20.854Z,6.90
2023-01-06T20:14:47.489Z,6.90
2023-01-06T20:17:14.676Z,6.90
2023-01-06T20:19:41.377Z,6.80
2023-01-06T20:22:08.134Z,6.80
2023-01-06T20:24:34.779Z,6.90
2023-01-06T20:27:01.371Z,6.80
2023-01-06T20:29:28.098Z,6.90
2023-01-06T20:31:54.782Z,6.90
2023-01-06T20:34:21.466Z,6.90
2023-01-06T20:36:48.185Z,6.90
2023-01-06T20:39:16.006Z,6.90
2023-01-06T20:41:42.705Z,6.90
2023-01-06T20:44:09.281Z,6.90
2023-01-06T20:46:35.950Z,6.90
2023-01-06T20:49:02.590Z,6.90
2023-01-06T20:51:31.336Z,6.90
2023-01-06T20:53:57.939Z,6.80
2023-01-06T20:56:24.713Z,6.80
2023-01-06T20:58:51.481Z,6.80
2023-01-06T21:01:18.272Z,6.80
2023-01-06T21:03:45.001Z,6.80
2023-01-06T21:06:11.707Z,6.80
2023-01-06T21:08:38.381Z,6.80
2023-01-06T21:11:05.082Z,6.80
2023-01-06T21:13:31.767Z,6.80
2023-01-06T21:15:58.419Z,6.80
2023-01-06T21:18:25.040Z,6.80
2023-01-06T21:20:51.719Z,6.80
2023-01-06T21:23:18.385Z,6.80
2023-01-06T21:25:45.091Z,6.80
2023-01-06T21:28:11.901Z,6.80
2023-01-06T21:30:38.518Z,6.80
2023-01-06T21:33:05.195Z,6.80
2023-01-06T21:35:31.823Z,6.80
2023-01-06T21:37:58.433Z,6.80
2023-01-06T21:40:25.090Z,6.90
2023-01-06T21:43:10.160Z,6.80
2023-01-06T21:45:41.268Z,6.90
2023-01-06T21:48:08.377Z,6.90
2023-01-06T21:50:37.143Z,6.90
2023-01-06T21:53:03.871Z,6.90
2023-01-06T21:55:30.584Z,6.90
2023-01-06T21:57:57.257Z,6.90
2023-01-06T22:00:23.916Z,6.90
2023-01-06T22:02:51.801Z,6.90
2023-01-06T22:05:18.637Z,6.90
2023-01-06T22:07:49.358Z,6.90
2023-01-06T22:10:17.648Z,6.90
2023-01-06T22:12:45.420Z,6.90
2023-01-06T22:15:12.688Z,6.90
2023-01-06T22:17:39.654Z,6.90
2023-01-06T22:20:06.893Z,6.90
2023-01-06T22:22:34.404Z,6.90
2023-01-06T22:25:01.433Z,6.90
2023-01-06T22:27:28.030Z,6.90
2023-01-06T22:29:54.643Z,6.90
2023-01-06T22:32:21.235Z,6.90
2023-01-06T22:34:48.416Z,6.90
2023-01-06T22:37:15.064Z,6.90
2023-01-06T22:39:43.478Z,6.90
2023-01-06T22:42:10.104Z,6.90
2023-01-06T22:44:36.760Z,6.90
2023-01-06T22:47:03.407Z,6.90
2023-01-06T22:49:30.031Z,6.90
2023-01-06T22:51:56.699Z,6.90
2023-01-06T22:54:23.341Z,6.90
2023-01-06T22:56:49.991Z,6.90
2023-01-06T22:59:16.717Z,6.90
2023-01-06T23:01:43.522Z,6.90
2023-01-06T23:04:10.381Z,6.90
2023-01-06T23:06:45.229Z,6.80
2023-01-06T23:09:11.832Z,6.80
2023-01-06T23:11:41.680Z,6.80
2023-01-06T23:14:08.891Z,6.80
2023-01-06T23:16:36.237Z,6.90
2023-01-06T23:19:02.935Z,6.90
2023-01-06T23:21:30.347Z,6.90
2023-01-06T23:23:57.296Z,6.90
2023-01-06T23:26:25.419Z,6.80
2023-01-06T23:28:52.849Z,6.80
2023-01-06T23:31:20.913Z,6.90
2023-01-06T23:33:48.777Z,6.90
2023-01-06T23:36:16.381Z,6.90
2023-01-06T23:38:43.070Z,6.90
2023-01-06T23:41:13.912Z,6.90
2023-01-06T23:43:40.608Z,6.80
2023-01-06T23:46:09.240Z,6.80
2023-01-06T23:48:36.074Z,6.80
2023-01-06T23:51:03.282Z,6.80
2023-01-06T23:53:30.383Z,6.80
2023-01-06T23:55:58.256Z,6.80
2023-01-06T23:58:25.819Z,6.80
